Terminal Aerodrome Forecast
Issued by NWS

Home | Current Version | Previous Version | Text Only | Print | Product List | Glossary On
Versions: 1 2 3 4 5 6 7 8 9 10 11 12 13 14 15 16 17 18 19 20 21 22 23 24 25 26 27 28 29
963
FTUS42 KCAE 040235 AAC
TAFDNL
TAF AMD
KDNL 040235Z 0403/0424 VRB03KT P6SM -RA BKN100
     FM040600 07003KT P6SM VCSH OVC050
     FM041500 07004KT 6SM -RA OVC035
     FM041800 07004KT 4SM -RA BR OVC015=

USA.gov is the U.S. government's official web portal to all federal, state and local government web resources and services.